createdAt,value
2017-10-22T00:01:26.329Z,1.70
2017-10-22T00:03:52.623Z,2.67
2017-10-22T00:06:18.934Z,1.73
2017-10-22T00:08:45.227Z,2.33
2017-10-22T00:11:12.230Z,2.20
2017-10-22T00:13:38.538Z,2.97
2017-10-22T00:16:04.810Z,2.60
2017-10-22T00:18:31.842Z,3.07
2017-10-22T00:20:58.161Z,2.40
2017-10-22T00:23:24.434Z,3.73
2017-10-22T00:25:50.732Z,2.23
2017-10-22T00:28:17.774Z,2.90
2017-10-22T00:30:44.083Z,2.50
2017-10-22T00:33:10.403Z,2.13
2017-10-22T00:35:37.494Z,2.07
2017-10-22T00:38:04.531Z,2.77
2017-10-22T00:40:30.874Z,2.37
2017-10-22T00:42:57.198Z,3.03
2017-10-22T00:45:23.510Z,1.90
2017-10-22T00:47:51.302Z,2.80
2017-10-22T00:50:18.361Z,2.60
2017-10-22T00:52:45.702Z,2.40
2017-10-22T00:55:12.026Z,2.20
2017-10-22T00:57:38.350Z,2.20
2017-10-22T01:00:05.406Z,2.17
2017-10-22T01:02:31.706Z,1.80
2017-10-22T01:04:58.758Z,2.13
2017-10-22T01:07:25.786Z,1.70
2017-10-22T01:09:52.173Z,1.60
2017-10-22T01:12:18.498Z,1.57
2017-10-22T01:14:44.830Z,2.37
2017-10-22T01:17:11.137Z,1.63
2017-10-22T01:19:37.466Z,1.53
2017-10-22T01:22:03.795Z,2.27
2017-10-22T01:24:30.134Z,1.90
2017-10-22T01:26:56.494Z,2.87
2017-10-22T01:29:22.827Z,2.73
2017-10-22T01:31:49.187Z,2.10
2017-10-22T01:34:15.559Z,1.50
2017-10-22T01:36:41.873Z,1.97
2017-10-22T01:39:08.218Z,1.63
2017-10-22T01:41:34.556Z,2.60
2017-10-22T01:44:00.915Z,1.87
2017-10-22T01:46:27.247Z,2.73
2017-10-22T01:48:53.563Z,2.50
2017-10-22T01:51:20.663Z,2.40
2017-10-22T01:53:46.997Z,1.70
2017-10-22T01:56:14.075Z,1.60
2017-10-22T01:58:40.439Z,3.00
2017-10-22T02:01:07.486Z,1.73
2017-10-22T02:03:33.779Z,1.73
2017-10-22T02:06:00.151Z,2.00
2017-10-22T02:08:26.463Z,2.07
2017-10-22T02:10:53.551Z,1.47
2017-10-22T02:13:19.862Z,1.47
2017-10-22T02:15:46.226Z,1.70
2017-10-22T02:18:12.558Z,2.23
2017-10-22T02:20:38.863Z,2.33
2017-10-22T02:23:05.930Z,1.57
2017-10-22T02:25:32.260Z,1.07
2017-10-22T02:27:58.590Z,1.40
2017-10-22T02:30:24.903Z,1.77
2017-10-22T02:32:51.961Z,1.90
2017-10-22T02:35:18.274Z,1.50
2017-10-22T02:37:44.602Z,1.47
2017-10-22T02:40:10.910Z,1.67
2017-10-22T02:42:37.232Z,1.53
2017-10-22T02:45:03.570Z,2.03
2017-10-22T02:47:29.887Z,1.63
2017-10-22T02:49:56.180Z,1.70
2017-10-22T02:52:22.504Z,1.50
2017-10-22T02:54:48.807Z,1.57
2017-10-22T02:57:15.064Z,1.77
2017-10-22T02:59:41.410Z,1.90
2017-10-22T03:02:07.724Z,1.33
2017-10-22T03:04:34.046Z,2.03
2017-10-22T03:07:00.351Z,2.17
2017-10-22T03:09:26.694Z,1.53
2017-10-22T03:11:53.005Z,1.40
2017-10-22T03:14:19.307Z,2.07
2017-10-22T03:16:45.638Z,2.10
2017-10-22T03:19:12.012Z,1.20
2017-10-22T03:21:39.352Z,1.83
2017-10-22T03:24:05.682Z,2.10
2017-10-22T03:26:31.982Z,1.73
2017-10-22T03:28:59.019Z,2.10
2017-10-22T03:31:25.291Z,2.20
2017-10-22T03:33:52.371Z,1.83
2017-10-22T03:36:18.658Z,2.00
2017-10-22T03:38:44.969Z,2.00
2017-10-22T03:41:11.255Z,2.10
2017-10-22T03:43:37.538Z,2.40
2017-10-22T03:46:03.838Z,3.17
2017-10-22T03:48:30.878Z,1.80
2017-10-22T03:50:59.258Z,3.67
2017-10-22T03:53:25.546Z,2.03
2017-10-22T03:55:51.862Z,2.37
2017-10-22T03:58:18.134Z,1.87
2017-10-22T04:00:44.482Z,2.40
2017-10-22T04:03:10.771Z,2.20
2017-10-22T04:05:37.818Z,1.50
2017-10-22T04:08:04.118Z,2.60
2017-10-22T04:10:30.433Z,3.23
2017-10-22T04:12:56.706Z,2.57
2017-10-22T04:15:24.126Z,2.20
2017-10-22T04:17:50.463Z,2.43
2017-10-22T04:20:16.754Z,2.87
2017-10-22T04:22:43.044Z,2.33
2017-10-22T04:25:09.383Z,2.80
2017-10-22T04:27:35.668Z,2.20
2017-10-22T04:30:02.721Z,1.93
2017-10-22T04:32:29.011Z,1.70
2017-10-22T04:34:55.336Z,1.70
2017-10-22T04:37:21.623Z,1.77
2017-10-22T04:39:47.959Z,2.80
2017-10-22T04:42:14.266Z,2.00
2017-10-22T04:44:40.591Z,2.20
2017-10-22T04:47:06.879Z,1.50
2017-10-22T04:49:33.170Z,1.95
2017-10-22T04:51:59.455Z,1.70
2017-10-22T04:54:25.747Z,1.90
2017-10-22T04:56:53.058Z,1.93
2017-10-22T04:59:19.374Z,2.03
2017-10-22T05:01:45.651Z,2.37
2017-10-22T05:04:11.970Z,1.77
2017-10-22T05:06:38.282Z,2.60
2017-10-22T05:09:04.583Z,2.40
2017-10-22T05:11:32.950Z,2.20
2017-10-22T05:13:59.970Z,2.30
2017-10-22T05:16:26.321Z,3.00
2017-10-22T05:18:52.590Z,2.03
2017-10-22T05:21:18.880Z,1.93
2017-10-22T05:23:45.182Z,2.10
2017-10-22T05:26:11.467Z,3.25
2017-10-22T05:28:37.746Z,2.27
2017-10-22T05:31:04.057Z,1.83
2017-10-22T05:33:30.346Z,2.42
2017-10-22T05:35:56.654Z,2.17
2017-10-22T05:38:22.926Z,2.43
2017-10-22T05:40:49.994Z,2.63
2017-10-22T05:43:16.294Z,2.05
2017-10-22T05:45:42.602Z,2.10
2017-10-22T05:48:08.947Z,1.63
2017-10-22T05:50:35.247Z,2.53
2017-10-22T05:53:01.499Z,2.77
2017-10-22T05:55:27.823Z,1.67
2017-10-22T05:57:54.091Z,2.17
2017-10-22T06:00:20.425Z,1.90
2017-10-22T06:02:46.702Z,1.97
2017-10-22T06:05:13.730Z,2.10
2017-10-22T06:07:40.050Z,2.70
2017-10-22T06:10:06.395Z,2.13
2017-10-22T06:12:32.683Z,1.67
2017-10-22T06:14:58.967Z,1.80
2017-10-22T06:17:25.262Z,2.63
2017-10-22T06:19:51.572Z,1.23
2017-10-22T06:22:17.850Z,2.27
2017-10-22T06:24:44.878Z,1.60
2017-10-22T06:27:11.356Z,1.87
2017-10-22T06:29:38.382Z,1.90
2017-10-22T06:32:04.680Z,1.80
2017-10-22T06:34:31.784Z,1.98
2017-10-22T06:36:58.094Z,2.10
2017-10-22T06:39:24.403Z,1.75
2017-10-22T06:41:50.725Z,2.13
2017-10-22T06:44:17.034Z,1.97
2017-10-22T06:46:43.389Z,2.05
2017-10-22T06:49:09.729Z,2.97
2017-10-22T06:51:36.059Z,2.35
2017-10-22T06:54:02.390Z,2.03
2017-10-22T06:56:28.750Z,2.00
2017-10-22T06:58:55.851Z,2.60
2017-10-22T07:01:22.171Z,2.00
2017-10-22T07:03:48.538Z,2.03
2017-10-22T07:06:14.835Z,2.43
2017-10-22T07:08:41.162Z,2.20
2017-10-22T07:11:08.216Z,1.97
2017-10-22T07:13:35.658Z,2.87
2017-10-22T07:16:01.971Z,2.33
2017-10-22T07:18:29.010Z,1.90
2017-10-22T07:20:55.463Z,2.13
2017-10-22T07:23:21.824Z,2.60
2017-10-22T07:25:48.122Z,2.47
2017-10-22T07:28:14.433Z,3.07
2017-10-22T07:30:41.510Z,2.40
2017-10-22T07:33:08.554Z,2.77
2017-10-22T07:35:34.851Z,2.00
2017-10-22T07:38:01.907Z,2.20
2017-10-22T07:40:29.010Z,3.70
2017-10-22T07:42:56.022Z,2.23
2017-10-22T07:45:22.359Z,2.20
2017-10-22T07:47:48.690Z,2.27
2017-10-22T07:50:15.023Z,1.77
2017-10-22T07:52:41.365Z,2.50
2017-10-22T07:55:08.451Z,2.33
2017-10-22T07:57:35.514Z,2.60
2017-10-22T08:00:02.580Z,2.50
2017-10-22T08:02:29.154Z,2.43
2017-10-22T08:04:56.214Z,2.17
2017-10-22T08:07:22.503Z,2.03
2017-10-22T08:09:48.798Z,3.40
2017-10-22T08:12:15.080Z,2.43
2017-10-22T08:14:42.150Z,2.37
2017-10-22T08:17:08.483Z,2.40
2017-10-22T08:19:34.811Z,2.70
2017-10-22T08:22:01.087Z,2.20
2017-10-22T08:24:27.378Z,3.03
2017-10-22T08:26:53.630Z,2.20
2017-10-22T08:29:21.110Z,2.33
2017-10-22T08:31:47.431Z,2.07
2017-10-22T08:34:13.735Z,2.43
2017-10-22T08:36:40.027Z,2.40
2017-10-22T08:39:06.327Z,2.13
2017-10-22T08:41:32.604Z,2.10
2017-10-22T08:43:58.898Z,2.20
2017-10-22T08:46:25.211Z,2.30
2017-10-22T08:48:52.246Z,1.63
2017-10-22T08:51:18.584Z,1.87
2017-10-22T08:53:44.895Z,2.40
2017-10-22T08:56:11.209Z,2.13
2017-10-22T08:58:38.291Z,2.70
2017-10-22T09:01:04.632Z,2.80
2017-10-22T09:03:31.007Z,2.60
2017-10-22T09:05:58.316Z,2.90
2017-10-22T09:08:24.646Z,2.83
2017-10-22T09:10:51.718Z,3.03
2017-10-22T09:13:18.298Z,2.43
2017-10-22T09:15:44.667Z,2.77
2017-10-22T09:18:11.694Z,3.03
2017-10-22T09:20:38.782Z,3.80
2017-10-22T09:23:05.282Z,2.30
2017-10-22T09:25:31.623Z,3.57
2017-10-22T09:27:57.941Z,2.70
2017-10-22T09:30:24.247Z,2.50
2017-10-22T09:32:50.573Z,2.80
2017-10-22T09:35:17.662Z,2.20
2017-10-22T09:37:44.770Z,2.07
2017-10-22T09:40:11.157Z,2.43
2017-10-22T09:42:37.526Z,2.73
2017-10-22T09:45:03.843Z,2.60
2017-10-22T09:47:30.179Z,1.83
2017-10-22T09:49:56.623Z,1.93
2017-10-22T09:52:22.914Z,2.70
2017-10-22T09:54:49.286Z,2.07
2017-10-22T09:57:15.648Z,2.40
2017-10-22T09:59:43.025Z,2.60
2017-10-22T10:02:09.373Z,2.23
2017-10-22T10:04:35.928Z,2.33
2017-10-22T10:07:02.498Z,2.47
2017-10-22T10:09:29.061Z,3.07
2017-10-22T10:11:57.273Z,3.70
2017-10-22T10:14:23.859Z,2.57
2017-10-22T10:16:50.237Z,2.87
2017-10-22T10:19:16.777Z,2.17
2017-10-22T10:21:43.748Z,3.07
2017-10-22T10:24:10.952Z,2.93
2017-10-22T10:26:37.989Z,2.70
2017-10-22T10:29:04.891Z,3.20
2017-10-22T10:31:33.633Z,2.90
2017-10-22T10:34:01.620Z,3.40
2017-10-22T10:36:29.059Z,2.73
2017-10-22T10:38:57.639Z,3.27
2017-10-22T10:41:25.415Z,4.10
2017-10-22T10:43:52.947Z,3.70
2017-10-22T10:46:20.712Z,4.33
2017-10-22T10:48:58.145Z,3.10
2017-10-22T10:51:26.050Z,3.20
2017-10-22T10:53:54.609Z,4.43
2017-10-22T10:56:22.472Z,4.90
2017-10-22T10:58:50.601Z,5.63
2017-10-22T11:01:18.285Z,5.10
2017-10-22T11:03:46.030Z,3.63
2017-10-22T11:06:14.015Z,2.50
2017-10-22T11:08:41.788Z,3.10
2017-10-22T11:11:09.791Z,2.83
2017-10-22T11:13:38.660Z,2.27
2017-10-22T11:16:06.413Z,2.00
2017-10-22T11:18:34.287Z,2.10
2017-10-22T11:21:02.027Z,2.30
2017-10-22T11:23:29.865Z,2.73
2017-10-22T11:25:57.848Z,3.50
2017-10-22T11:28:25.618Z,3.27
2017-10-22T11:30:53.522Z,3.00
2017-10-22T11:33:21.384Z,3.33
2017-10-22T11:35:49.372Z,3.00
2017-10-22T11:38:17.162Z,3.12
2017-10-22T11:40:45.150Z,2.97
2017-10-22T11:43:13.265Z,2.30
2017-10-22T11:45:41.302Z,2.83
2017-10-22T11:48:10.416Z,2.87
2017-10-22T11:50:38.395Z,2.33
2017-10-22T11:53:06.333Z,4.53
2017-10-22T11:55:34.221Z,3.67
2017-10-22T11:58:02.043Z,2.90
2017-10-22T12:00:30.277Z,2.13
2017-10-22T12:03:01.007Z,3.10
2017-10-22T12:05:29.774Z,3.13
2017-10-22T12:07:57.562Z,2.80
2017-10-22T12:10:25.524Z,2.97
2017-10-22T12:12:53.380Z,2.87
2017-10-22T12:15:21.323Z,3.00
2017-10-22T12:17:49.136Z,2.90
2017-10-22T12:20:17.850Z,3.30
2017-10-22T12:22:45.756Z,3.80
2017-10-22T12:25:13.633Z,5.20
2017-10-22T12:27:41.589Z,4.20
2017-10-22T12:30:09.605Z,4.13
2017-10-22T12:32:38.262Z,5.07
2017-10-22T12:35:06.104Z,4.03
2017-10-22T12:37:34.902Z,4.33
2017-10-22T12:40:02.919Z,4.70
2017-10-22T12:42:30.792Z,4.03
2017-10-22T12:44:58.980Z,2.77
2017-10-22T12:47:27.780Z,2.73
2017-10-22T12:49:55.801Z,2.83
2017-10-22T12:52:23.699Z,2.57
2017-10-22T12:54:52.248Z,2.47
2017-10-22T12:57:20.193Z,1.67
2017-10-22T12:59:49.944Z,2.17
2017-10-22T13:02:17.732Z,1.67
2017-10-22T13:04:45.616Z,1.40
2017-10-22T13:07:13.681Z,1.20
2017-10-22T13:09:41.772Z,1.20
2017-10-22T13:12:09.650Z,2.03
2017-10-22T13:14:37.705Z,1.17
2017-10-22T13:17:05.492Z,1.30
2017-10-22T13:19:33.536Z,1.50
2017-10-22T13:22:02.366Z,1.67
2017-10-22T13:24:31.293Z,1.80
2017-10-22T13:26:59.254Z,1.43
2017-10-22T13:29:27.971Z,2.40
2017-10-22T13:31:55.825Z,2.43
2017-10-22T13:34:24.824Z,1.43
2017-10-22T13:36:52.731Z,1.70
2017-10-22T13:39:20.617Z,1.33
2017-10-22T13:41:49.406Z,1.27
2017-10-22T13:44:17.357Z,0.80
2017-10-22T13:46:45.237Z,0.70
2017-10-22T13:49:13.427Z,0.90
2017-10-22T13:51:42.020Z,0.87
2017-10-22T13:54:09.937Z,0.80
2017-10-22T13:56:37.975Z,1.27
2017-10-22T13:59:05.761Z,0.40
2017-10-22T14:01:33.577Z,0.63
2017-10-22T14:04:01.641Z,0.57
2017-10-22T14:06:30.324Z,1.00
2017-10-22T14:08:58.127Z,0.50
2017-10-22T14:11:26.132Z,0.70
2017-10-22T14:13:55.363Z,0.55
2017-10-22T14:16:23.174Z,0.70
2017-10-22T14:18:51.866Z,0.80
2017-10-22T14:21:19.683Z,0.70
2017-10-22T14:23:47.452Z,0.50
2017-10-22T14:26:16.157Z,1.00
2017-10-22T14:28:43.956Z,0.90
2017-10-22T14:31:12.592Z,0.53
2017-10-22T14:33:40.673Z,0.67
2017-10-22T14:36:08.485Z,0.50
2017-10-22T14:38:36.402Z,1.10
2017-10-22T14:41:04.449Z,1.00
2017-10-22T14:43:32.359Z,1.03
2017-10-22T14:46:00.222Z,0.50
2017-10-22T14:48:28.791Z,0.50
2017-10-22T14:50:56.844Z,0.73
2017-10-22T14:53:24.671Z,0.50
2017-10-22T14:55:52.697Z,0.80
2017-10-22T14:58:20.491Z,1.00
2017-10-22T15:00:48.664Z,0.50
2017-10-22T15:03:16.580Z,0.50
2017-10-22T15:05:44.416Z,0.80
2017-10-22T15:08:12.379Z,0.77
2017-10-22T15:10:41.848Z,0.90
2017-10-22T15:13:11.627Z,1.00
2017-10-22T15:15:39.636Z,0.60
2017-10-22T15:18:08.286Z,0.68
2017-10-22T15:20:36.110Z,0.60
2017-10-22T15:23:04.782Z,1.10
2017-10-22T15:25:32.704Z,0.70
2017-10-22T15:28:00.448Z,0.50
2017-10-22T15:30:28.646Z,0.90
2017-10-22T15:32:56.468Z,0.93
2017-10-22T15:35:24.330Z,1.10
2017-10-22T15:37:52.345Z,0.80
2017-10-22T15:40:21.002Z,1.00
2017-10-22T15:42:48.769Z,1.00
2017-10-22T15:45:16.664Z,0.87
2017-10-22T15:47:44.703Z,0.80
2017-10-22T15:50:13.370Z,0.97
2017-10-22T15:52:41.299Z,0.60
2017-10-22T15:55:09.842Z,0.50
2017-10-22T15:57:39.430Z,0.50
2017-10-22T16:00:07.496Z,0.65
2017-10-22T16:02:35.325Z,0.70
2017-10-22T16:05:03.383Z,0.80
2017-10-22T16:07:31.187Z,1.10
2017-10-22T16:09:59.140Z,1.00
2017-10-22T16:12:28.111Z,0.80
2017-10-22T16:14:55.890Z,1.00
2017-10-22T16:17:24.545Z,0.85
2017-10-22T16:19:52.806Z,1.20
2017-10-22T16:22:21.361Z,1.27
2017-10-22T16:24:49.370Z,1.25
2017-10-22T16:27:17.196Z,0.70
2017-10-22T16:29:45.861Z,1.20
2017-10-22T16:32:13.819Z,1.30
2017-10-22T16:34:41.914Z,1.00
2017-10-22T16:37:09.880Z,0.88
2017-10-22T16:39:37.792Z,1.08
2017-10-22T16:42:05.709Z,1.27
2017-10-22T16:44:34.228Z,1.27
2017-10-22T16:47:02.262Z,1.48
2017-10-22T16:49:30.098Z,1.83
2017-10-22T16:51:57.942Z,1.65
2017-10-22T16:54:28.193Z,2.72
2017-10-22T16:56:57.926Z,2.92
2017-10-22T16:59:27.744Z,2.60
2017-10-22T17:01:55.609Z,1.90
2017-10-22T17:04:23.428Z,2.40
2017-10-22T17:06:51.490Z,3.22
2017-10-22T17:09:20.970Z,2.72
2017-10-22T17:11:50.194Z,2.95
2017-10-22T17:14:19.424Z,5.30
2017-10-22T17:16:49.020Z,5.47
2017-10-22T17:19:18.396Z,5.15
2017-10-22T17:21:46.968Z,5.87
2017-10-22T17:24:15.112Z,4.80
2017-10-22T17:26:44.979Z,2.30
2017-10-22T17:29:13.716Z,1.90
2017-10-22T17:31:41.859Z,2.15
2017-10-22T17:34:10.579Z,1.75
2017-10-22T17:36:38.851Z,2.20
2017-10-22T17:39:06.839Z,2.25
2017-10-22T17:41:34.911Z,2.87
2017-10-22T17:44:04.400Z,2.47
2017-10-22T17:46:34.752Z,2.67
2017-10-22T17:49:03.373Z,3.05
2017-10-22T17:51:31.410Z,2.10
2017-10-22T17:53:59.532Z,3.22
2017-10-22T17:56:28.247Z,2.58
2017-10-22T17:58:56.184Z,3.08
2017-10-22T18:01:24.455Z,3.05
2017-10-22T18:03:53.945Z,2.60
2017-10-22T18:06:21.785Z,2.58
2017-10-22T18:08:50.718Z,2.28
2017-10-22T18:11:19.130Z,2.37
2017-10-22T18:13:47.068Z,2.67
2017-10-22T18:16:15.706Z,2.72
2017-10-22T18:18:43.659Z,2.75
2017-10-22T18:21:12.457Z,2.33
2017-10-22T18:23:40.663Z,2.65
2017-10-22T18:26:09.861Z,2.60
2017-10-22T18:28:38.218Z,3.45
2017-10-22T18:31:07.885Z,2.58
2017-10-22T18:33:37.872Z,2.50
2017-10-22T18:36:06.915Z,3.58
2017-10-22T18:38:34.996Z,3.03
2017-10-22T18:41:03.788Z,3.10
2017-10-22T18:43:31.813Z,3.25
2017-10-22T18:45:59.678Z,2.85
2017-10-22T18:48:29.573Z,3.25
2017-10-22T18:50:59.579Z,2.87
2017-10-22T18:53:28.345Z,2.60
2017-10-22T18:55:56.971Z,3.10
2017-10-22T18:58:25.870Z,3.08
2017-10-22T19:00:55.017Z,2.65
2017-10-22T19:03:25.933Z,2.53
2017-10-22T19:05:55.689Z,3.17
2017-10-22T19:08:24.487Z,2.47
2017-10-22T19:10:53.413Z,2.70
2017-10-22T19:13:23.249Z,2.50
2017-10-22T19:15:53.298Z,3.22
2017-10-22T19:18:22.112Z,2.25
2017-10-22T19:20:51.079Z,2.87
2017-10-22T19:23:21.072Z,2.95
2017-10-22T19:25:49.984Z,3.12
2017-10-22T19:28:20.672Z,2.15
2017-10-22T19:30:50.152Z,2.40
2017-10-22T19:33:18.065Z,2.10
2017-10-22T19:35:47.305Z,1.90
2017-10-22T19:38:15.205Z,2.33
2017-10-22T19:40:44.300Z,2.50
2017-10-22T19:43:13.808Z,2.30
2017-10-22T19:45:42.678Z,2.28
2017-10-22T19:48:11.492Z,2.40
2017-10-22T19:50:41.362Z,2.15
2017-10-22T19:53:09.226Z,2.17
2017-10-22T19:55:40.129Z,2.15
2017-10-22T19:58:09.440Z,2.67
2017-10-22T20:00:37.493Z,3.12
2017-10-22T20:03:06.358Z,3.92
2017-10-22T20:05:34.339Z,4.47
2017-10-22T20:08:02.317Z,3.12
2017-10-22T20:10:30.981Z,2.92
2017-10-22T20:12:58.900Z,3.42
2017-10-22T20:15:27.584Z,3.97
2017-10-22T20:17:55.502Z,3.75
2017-10-22T20:20:23.629Z,2.97
2017-10-22T20:22:51.508Z,3.28
2017-10-22T20:25:19.453Z,3.35
2017-10-22T20:27:47.437Z,2.70
2017-10-22T20:30:16.399Z,3.33
2017-10-22T20:32:45.405Z,2.60
2017-10-22T20:35:14.453Z,2.85
2017-10-22T20:37:43.003Z,3.58
2017-10-22T20:40:12.066Z,2.40
2017-10-22T20:42:41.231Z,2.50
2017-10-22T20:45:10.120Z,2.97
2017-10-22T20:47:40.005Z,2.72
2017-10-22T20:50:07.851Z,2.97
2017-10-22T20:52:36.827Z,2.67
2017-10-22T20:55:07.556Z,3.10
2017-10-22T20:57:36.764Z,3.37
2017-10-22T21:00:05.646Z,2.80
2017-10-22T21:02:36.035Z,2.70
2017-10-22T21:05:04.787Z,3.45
2017-10-22T21:07:33.759Z,2.70
2017-10-22T21:10:02.447Z,2.83
2017-10-22T21:12:31.162Z,2.65
2017-10-22T21:15:00.162Z,3.12
2017-10-22T21:17:27.974Z,2.25
2017-10-22T21:19:57.570Z,2.50
2017-10-22T21:22:26.139Z,2.40
2017-10-22T21:24:54.952Z,2.95
2017-10-22T21:27:24.226Z,2.30
2017-10-22T21:29:53.545Z,2.30
2017-10-22T21:32:22.266Z,1.77
2017-10-22T21:34:51.204Z,2.40
2017-10-22T21:37:20.869Z,1.80
2017-10-22T21:39:50.948Z,2.20
2017-10-22T21:42:18.185Z,1.95
2017-10-22T21:44:45.053Z,3.40
2017-10-22T21:47:12.024Z,1.90
2017-10-22T21:49:38.997Z,2.67
2017-10-22T21:52:06.430Z,1.45
2017-10-22T21:54:32.947Z,1.98
2017-10-22T21:56:59.263Z,1.45
2017-10-22T21:59:25.574Z,1.60
2017-10-22T22:01:51.846Z,1.37
2017-10-22T22:04:18.163Z,2.10
2017-10-22T22:06:44.447Z,1.50
2017-10-22T22:09:10.839Z,2.15
2017-10-22T22:11:37.906Z,1.70
2017-10-22T22:14:04.207Z,1.20
2017-10-22T22:16:30.547Z,2.10
2017-10-22T22:18:56.833Z,1.80
2017-10-22T22:21:23.145Z,1.85
2017-10-22T22:23:50.174Z,2.05
2017-10-22T22:26:16.450Z,1.92
2017-10-22T22:28:42.787Z,1.87
2017-10-22T22:31:09.368Z,2.15
2017-10-22T22:33:35.679Z,2.20
2017-10-22T22:36:01.985Z,1.75
2017-10-22T22:38:28.314Z,1.77
2017-10-22T22:40:54.611Z,2.50
2017-10-22T22:43:20.875Z,1.77
2017-10-22T22:45:47.925Z,1.50
2017-10-22T22:48:14.963Z,1.85
2017-10-22T22:50:41.340Z,2.65
2017-10-22T22:53:07.617Z,2.20
2017-10-22T22:55:34.647Z,1.98
2017-10-22T22:58:00.954Z,1.80
2017-10-22T23:00:27.979Z,2.45
2017-10-22T23:02:54.319Z,1.98
2017-10-22T23:05:20.623Z,2.12
2017-10-22T23:07:46.906Z,2.78
2017-10-22T23:10:13.234Z,1.90
2017-10-22T23:12:41.398Z,1.67
2017-10-22T23:15:07.738Z,1.90
2017-10-22T23:17:34.037Z,2.05
2017-10-22T23:20:00.411Z,1.83
2017-10-22T23:22:26.678Z,1.90
2017-10-22T23:24:52.987Z,2.47
2017-10-22T23:27:19.275Z,1.90
2017-10-22T23:29:46.282Z,1.73
2017-10-22T23:32:12.607Z,1.60
2017-10-22T23:34:38.935Z,2.05
2017-10-22T23:37:05.226Z,1.87
2017-10-22T23:39:31.537Z,2.40
2017-10-22T23:41:57.815Z,2.85
2017-10-22T23:44:24.114Z,2.30
2017-10-22T23:46:50.418Z,2.30
2017-10-22T23:49:17.456Z,2.30
2017-10-22T23:51:44.763Z,2.10
2017-10-22T23:54:11.170Z,1.65
2017-10-22T23:56:37.452Z,2.00
2017-10-22T23:59:04.490Z,1.83
